createdAt,value
2022-12-01T00:00:02.117Z,35.83
2022-12-01T00:02:53.769Z,34.75
2022-12-01T00:05:25.521Z,32.35
2022-12-01T00:07:59.154Z,33.60
2022-12-01T00:10:33.526Z,32.50
2022-12-01T00:13:06.639Z,32.75
2022-12-01T00:15:38.296Z,31.65
2022-12-01T00:18:10.363Z,31.95
2022-12-01T00:20:42.069Z,33.70
2022-12-01T00:23:13.685Z,31.42
2022-12-01T00:25:48.786Z,30.55
2022-12-01T00:28:20.380Z,32.30
2022-12-01T00:30:51.989Z,32.38
2022-12-01T00:33:23.687Z,30.15
2022-12-01T00:36:01.938Z,32.20
2022-12-01T00:38:37.148Z,31.40
2022-12-01T00:41:09.833Z,33.30
2022-12-01T00:43:43.825Z,29.60
2022-12-01T00:46:15.589Z,32.55
2022-12-01T00:48:47.692Z,32.13
2022-12-01T00:51:19.252Z,31.83
2022-12-01T00:53:51.220Z,34.58
2022-12-01T00:56:22.797Z,34.20
2022-12-01T00:58:54.360Z,32.95
2022-12-01T01:01:26.348Z,32.35
2022-12-01T01:04:00.940Z,34.13
2022-12-01T01:06:32.568Z,32.40
2022-12-01T01:09:04.253Z,33.88
2022-12-01T01:11:38.653Z,32.35
2022-12-01T01:14:13.355Z,32.13
2022-12-01T01:16:45.217Z,33.20
2022-12-01T01:19:20.046Z,34.78
2022-12-01T01:21:54.023Z,33.58
2022-12-01T01:24:32.786Z,33.47
2022-12-01T01:27:06.586Z,33.08
2022-12-01T01:29:42.571Z,31.73
2022-12-01T01:32:14.179Z,32.70
2022-12-01T01:34:52.461Z,31.48
2022-12-01T01:37:24.049Z,30.33
2022-12-01T01:39:55.583Z,31.27
2022-12-01T01:42:27.162Z,30.45
2022-12-01T01:44:59.245Z,30.08
2022-12-01T01:47:34.781Z,30.85
2022-12-01T01:50:12.719Z,32.08
2022-12-01T01:53:07.901Z,30.30
2022-12-01T01:55:39.896Z,31.45
2022-12-01T01:58:12.159Z,31.08
2022-12-01T02:00:47.291Z,30.27
2022-12-01T02:03:22.484Z,28.80
2022-12-01T02:05:54.102Z,29.02
2022-12-01T02:08:25.949Z,28.80
2022-12-01T02:11:22.983Z,30.05
2022-12-01T02:14:10.780Z,30.42
2022-12-01T02:17:19.829Z,29.95
2022-12-01T02:20:42.425Z,31.80
2022-12-01T02:23:25.687Z,31.02
2022-12-01T02:26:32.316Z,30.58
2022-12-01T02:29:40.780Z,29.80
2022-12-01T02:32:32.080Z,30.35
2022-12-01T02:35:24.036Z,30.20
2022-12-01T02:38:20.544Z,28.63
2022-12-01T02:41:20.607Z,30.55
2022-12-01T02:44:19.871Z,28.75
2022-12-01T02:47:02.672Z,30.48
2022-12-01T02:49:38.734Z,30.88
2022-12-01T02:52:15.182Z,32.90
2022-12-01T02:54:50.415Z,31.80
2022-12-01T02:57:23.504Z,33.25
2022-12-01T02:59:57.135Z,34.55
2022-12-01T03:02:43.354Z,36.45
2022-12-01T03:05:48.193Z,34.40
2022-12-01T03:08:35.445Z,34.25
2022-12-01T03:11:07.165Z,35.42
2022-12-01T03:13:51.132Z,34.83
2022-12-01T03:16:37.285Z,33.28
2022-12-01T03:19:22.353Z,33.35
2022-12-01T03:22:27.545Z,31.58
2022-12-01T03:25:04.028Z,29.92
2022-12-01T03:28:00.578Z,30.73
2022-12-01T03:30:38.368Z,29.23
2022-12-01T03:33:19.405Z,29.45
2022-12-01T03:36:10.899Z,29.88
2022-12-01T03:38:54.280Z,28.05
2022-12-01T03:41:38.904Z,28.00
2022-12-01T03:44:25.207Z,27.88
2022-12-01T03:47:14.612Z,26.20
2022-12-01T03:49:50.315Z,27.80
2022-12-01T03:52:56.042Z,28.15
2022-12-01T03:55:31.411Z,29.38
2022-12-01T03:58:13.572Z,29.30
2022-12-01T04:00:49.996Z,29.23
2022-12-01T04:03:25.167Z,28.23
2022-12-01T04:06:01.040Z,28.13
2022-12-01T04:08:33.854Z,29.38
2022-12-01T04:11:32.470Z,28.38
2022-12-01T04:14:04.469Z,28.35
2022-12-01T04:16:38.255Z,29.23
2022-12-01T04:19:11.073Z,28.08
2022-12-01T04:21:42.759Z,24.02
2022-12-01T04:24:15.694Z,24.65
2022-12-01T04:26:47.524Z,24.65
2022-12-01T04:29:19.101Z,25.60
2022-12-01T04:31:50.788Z,23.15
2022-12-01T04:34:24.568Z,25.00
2022-12-01T04:36:58.252Z,24.92
2022-12-01T04:39:29.859Z,25.42
2022-12-01T04:42:02.431Z,24.77
2022-12-01T04:44:35.229Z,23.90
2022-12-01T04:47:09.716Z,23.48
2022-12-01T04:49:41.325Z,22.80
2022-12-01T04:52:12.968Z,22.90
2022-12-01T04:54:44.806Z,22.85
2022-12-01T04:57:16.393Z,23.77
2022-12-01T04:59:48.390Z,22.90
2022-12-01T05:02:20.246Z,23.02
2022-12-01T05:04:52.189Z,24.13
2022-12-01T05:07:23.824Z,22.75
2022-12-01T05:09:57.726Z,22.90
2022-12-01T05:12:31.408Z,22.67
2022-12-01T05:15:03.054Z,23.58
2022-12-01T05:17:37.664Z,23.25
2022-12-01T05:20:36.316Z,22.27
2022-12-01T05:23:13.583Z,22.08
2022-12-01T05:25:51.064Z,22.85
2022-12-01T05:28:24.776Z,21.70
2022-12-01T05:31:02.286Z,22.98
2022-12-01T05:33:33.951Z,22.25
2022-12-01T05:36:05.848Z,22.95
2022-12-01T05:38:37.419Z,23.25
2022-12-01T05:41:12.132Z,22.17
2022-12-01T05:43:43.993Z,23.42
2022-12-01T05:46:15.754Z,22.65
2022-12-01T05:48:47.414Z,22.67
2022-12-01T05:51:22.193Z,23.05
2022-12-01T05:53:53.848Z,22.75
2022-12-01T05:56:25.570Z,21.75
2022-12-01T05:58:57.208Z,24.25
2022-12-01T06:01:28.791Z,21.27
2022-12-01T06:04:00.424Z,21.15
2022-12-01T06:06:34.789Z,22.70
2022-12-01T06:09:06.486Z,20.38
2022-12-01T06:11:38.098Z,20.80
2022-12-01T06:14:09.661Z,21.73
2022-12-01T06:16:41.546Z,21.35
2022-12-01T06:19:13.181Z,21.70
2022-12-01T06:21:44.757Z,21.65
2022-12-01T06:24:19.391Z,22.92
2022-12-01T06:26:51.050Z,20.92
2022-12-01T06:29:22.684Z,21.02
2022-12-01T06:31:54.276Z,21.23
2022-12-01T06:34:26.701Z,20.33
2022-12-01T06:37:01.455Z,21.30
2022-12-01T06:39:33.071Z,22.13
2022-12-01T06:42:06.579Z,22.85
2022-12-01T06:44:40.888Z,21.52
2022-12-01T06:47:12.653Z,16.20
2022-12-01T06:49:44.616Z,20.60
2022-12-01T06:52:16.338Z,22.05
2022-12-01T06:54:47.927Z,21.52
2022-12-01T06:57:19.868Z,21.88
2022-12-01T06:59:52.825Z,21.83
2022-12-01T07:02:24.948Z,20.42
2022-12-01T07:04:56.608Z,19.02
2022-12-01T07:07:28.176Z,21.40
2022-12-01T07:10:09.199Z,20.40
2022-12-01T07:12:41.133Z,22.05
2022-12-01T07:15:15.728Z,20.65
2022-12-01T07:17:47.336Z,20.08
2022-12-01T07:20:18.941Z,20.55
2022-12-01T07:22:50.576Z,19.17
2022-12-01T07:25:24.281Z,20.00
2022-12-01T07:27:56.720Z,20.33
2022-12-01T07:30:28.810Z,19.42
2022-12-01T07:33:00.800Z,19.77
2022-12-01T07:35:32.417Z,19.67
2022-12-01T07:38:04.049Z,19.27
2022-12-01T07:40:35.650Z,18.77
2022-12-01T07:43:09.980Z,20.30
2022-12-01T07:45:41.812Z,21.17
2022-12-01T07:48:13.489Z,22.45
2022-12-01T07:50:45.032Z,23.13
2022-12-01T07:53:16.585Z,23.80
2022-12-01T07:55:58.757Z,22.77
2022-12-01T07:58:33.705Z,24.23
2022-12-01T08:01:12.810Z,22.50
2022-12-01T08:03:44.993Z,23.63
2022-12-01T08:06:17.986Z,21.98
2022-12-01T08:08:52.888Z,23.58
2022-12-01T08:13:57.395Z,21.23
2022-12-01T08:16:31.130Z,22.50
2022-12-01T08:19:04.077Z,20.27
2022-12-01T08:21:37.461Z,20.58
2022-12-01T08:24:10.910Z,22.00
2022-12-01T08:26:42.605Z,20.58
2022-12-01T08:29:19.724Z,19.55
2022-12-01T08:31:51.950Z,20.33
2022-12-01T08:34:23.779Z,20.65
2022-12-01T08:36:55.445Z,20.77
2022-12-01T08:39:28.053Z,20.17
2022-12-01T08:42:00.155Z,20.10
2022-12-01T08:44:34.883Z,21.10
2022-12-01T08:49:38.192Z,20.75
2022-12-01T08:52:09.756Z,20.77
2022-12-01T08:54:41.305Z,20.17
2022-12-01T08:57:12.964Z,23.05
2022-12-01T08:59:44.623Z,21.25
2022-12-01T09:02:19.032Z,19.83
2022-12-01T09:04:51.713Z,20.52
2022-12-01T09:07:27.112Z,22.75
2022-12-01T09:09:59.161Z,21.52
2022-12-01T09:12:31.224Z,18.00
2022-12-01T09:15:03.159Z,20.27
2022-12-01T09:17:34.708Z,19.90
2022-12-01T09:20:10.211Z,19.90
2022-12-01T09:22:41.808Z,20.65
2022-12-01T09:25:14.737Z,19.63
2022-12-01T09:27:46.601Z,18.60
2022-12-01T09:30:24.682Z,18.55
2022-12-01T09:32:56.269Z,16.90
2022-12-01T09:35:27.815Z,16.17
2022-12-01T09:37:59.556Z,17.05
2022-12-01T09:40:40.168Z,16.60
2022-12-01T09:43:41.712Z,15.88
2022-12-01T09:46:20.279Z,17.95
2022-12-01T09:48:57.109Z,15.98
2022-12-01T09:51:34.871Z,16.50
2022-12-01T09:54:11.730Z,16.25
2022-12-01T09:56:50.401Z,15.15
2022-12-01T09:59:26.930Z,15.95
2022-12-01T10:02:33.411Z,16.45
2022-12-01T10:05:12.473Z,17.35
2022-12-01T10:07:50.350Z,16.77
2022-12-01T10:10:34.323Z,20.33
2022-12-01T10:13:28.180Z,17.73
2022-12-01T10:16:07.527Z,17.10
2022-12-01T10:19:26.106Z,16.55
2022-12-01T10:22:42.631Z,16.45
2022-12-01T10:25:25.678Z,17.27
2022-12-01T10:28:12.862Z,16.85
2022-12-01T10:30:52.679Z,17.15
2022-12-01T10:33:25.816Z,16.23
2022-12-01T10:35:58.015Z,15.32
2022-12-01T10:38:49.614Z,18.20
2022-12-01T10:41:24.535Z,18.52
2022-12-01T10:44:01.066Z,17.38
2022-12-01T10:46:47.644Z,17.63
2022-12-01T10:49:34.800Z,17.63
2022-12-01T10:52:33.008Z,18.23
2022-12-01T10:55:22.994Z,17.30
2022-12-01T10:57:57.750Z,18.98
2022-12-01T11:03:35.159Z,18.42
2022-12-01T11:06:07.758Z,18.23
2022-12-01T11:08:45.420Z,19.05
2022-12-01T11:11:36.526Z,19.13
2022-12-01T11:14:36.488Z,18.58
2022-12-01T11:17:25.714Z,18.40
2022-12-01T11:19:58.453Z,20.15
2022-12-01T11:22:33.068Z,19.02
2022-12-01T11:25:05.881Z,18.63
2022-12-01T11:27:57.701Z,19.92
2022-12-01T11:30:35.719Z,20.27
2022-12-01T11:33:07.436Z,20.80
2022-12-01T11:35:46.007Z,21.42
2022-12-01T11:38:30.679Z,20.70
2022-12-01T11:41:03.573Z,20.88
2022-12-01T11:43:41.617Z,22.00
2022-12-01T11:46:16.836Z,19.73
2022-12-01T11:49:00.465Z,20.60
2022-12-01T11:51:37.722Z,21.73
2022-12-01T11:54:44.322Z,20.30
2022-12-01T11:57:33.860Z,19.75
2022-12-01T12:00:29.648Z,20.20
2022-12-01T12:03:04.631Z,20.42
2022-12-01T12:05:52.862Z,19.75
2022-12-01T12:08:30.977Z,16.25
2022-12-01T12:11:17.438Z,17.75
2022-12-01T12:14:19.896Z,18.75
2022-12-01T12:17:19.295Z,20.08
2022-12-01T12:20:28.101Z,18.10
2022-12-01T12:23:20.264Z,17.55
2022-12-01T12:26:15.892Z,19.23
2022-12-01T12:29:14.025Z,19.73
2022-12-01T12:32:14.516Z,18.58
2022-12-01T12:35:06.030Z,18.38
2022-12-01T12:38:34.703Z,18.77
2022-12-01T12:41:24.149Z,19.67
2022-12-01T12:44:08.930Z,19.50
2022-12-01T12:47:08.072Z,18.25
2022-12-01T12:49:50.990Z,19.92
2022-12-01T12:52:28.862Z,20.58
2022-12-01T12:55:10.898Z,19.27
2022-12-01T12:57:48.810Z,18.83
2022-12-01T13:00:28.904Z,18.25
2022-12-01T13:03:38.539Z,16.90
2022-12-01T13:06:14.702Z,19.67
2022-12-01T13:09:14.291Z,19.08
2022-12-01T13:12:10.262Z,20.50
2022-12-01T13:14:59.460Z,19.83
2022-12-01T13:17:41.793Z,20.02
2022-12-01T13:20:21.094Z,19.67
2022-12-01T13:22:54.119Z,20.75
2022-12-01T13:25:39.557Z,22.08
2022-12-01T13:28:22.064Z,22.75
2022-12-01T13:31:01.821Z,20.80
2022-12-01T13:33:35.681Z,21.02
2022-12-01T13:39:18.064Z,19.15
2022-12-01T13:42:23.048Z,20.88
2022-12-01T13:45:01.588Z,21.17
2022-12-01T13:47:51.406Z,21.27
2022-12-01T13:50:44.579Z,21.63
2022-12-01T13:53:19.121Z,22.20
2022-12-01T13:56:23.558Z,20.80
2022-12-01T13:58:55.536Z,24.33
2022-12-01T14:01:27.186Z,21.20
2022-12-01T14:04:10.968Z,24.35
2022-12-01T14:06:50.997Z,24.52
2022-12-01T14:09:53.875Z,23.08
2022-12-01T14:12:30.348Z,24.38
2022-12-01T14:15:20.860Z,22.23
2022-12-01T14:18:04.338Z,22.98
2022-12-01T14:20:45.843Z,19.98
2022-12-01T14:23:33.928Z,20.92
2022-12-01T14:26:18.281Z,22.00
2022-12-01T14:28:55.970Z,22.92
2022-12-01T14:31:33.588Z,22.45
2022-12-01T14:34:15.752Z,24.33
2022-12-01T14:40:05.847Z,23.05
2022-12-01T14:43:00.082Z,22.70
2022-12-01T14:45:58.265Z,23.65
2022-12-01T14:48:39.338Z,23.98
2022-12-01T14:51:24.113Z,24.55
2022-12-01T14:53:57.892Z,25.63
2022-12-01T14:56:32.400Z,23.90
2022-12-01T14:59:19.170Z,25.13
2022-12-01T15:01:53.731Z,26.27
2022-12-01T15:04:28.505Z,25.42
2022-12-01T15:09:33.920Z,26.30
2022-12-01T15:12:07.626Z,25.83
2022-12-01T15:14:48.209Z,24.58
2022-12-01T15:17:35.824Z,25.27
2022-12-01T15:20:46.327Z,26.10
2022-12-01T15:23:19.391Z,25.27
2022-12-01T15:25:51.100Z,26.13
2022-12-01T15:28:36.172Z,25.90
2022-12-01T15:31:12.681Z,25.40
2022-12-01T15:33:52.935Z,25.52
2022-12-01T15:36:24.669Z,25.20
2022-12-01T15:39:03.568Z,25.70
2022-12-01T15:41:41.419Z,27.55
2022-12-01T15:44:22.823Z,25.67
2022-12-01T15:46:54.941Z,24.92
2022-12-01T15:49:32.916Z,23.98
2022-12-01T15:52:12.791Z,24.67
2022-12-01T15:54:48.420Z,24.98
2022-12-01T15:57:21.918Z,27.45
2022-12-01T15:59:56.457Z,25.67
2022-12-01T16:02:33.695Z,24.08
2022-12-01T16:05:14.362Z,23.95
2022-12-01T16:08:12.766Z,25.65
2022-12-01T16:10:39.236Z,24.60
2022-12-01T16:13:44.142Z,25.20
2022-12-01T16:16:42.298Z,24.88
2022-12-01T16:19:16.796Z,22.50
2022-12-01T16:21:55.680Z,25.17
2022-12-01T16:24:34.322Z,24.90
2022-12-01T16:27:20.275Z,27.08
2022-12-01T16:29:53.282Z,23.90
2022-12-01T16:32:39.361Z,24.90
2022-12-01T16:35:33.138Z,24.35
2022-12-01T16:38:13.245Z,24.58
2022-12-01T16:40:45.303Z,27.02
2022-12-01T16:43:25.174Z,25.38
2022-12-01T16:46:06.706Z,26.33
2022-12-01T16:48:38.454Z,25.23
2022-12-01T16:51:14.626Z,26.88
2022-12-01T16:53:50.959Z,26.15
2022-12-01T16:56:22.797Z,27.60
2022-12-01T16:58:54.394Z,25.08
2022-12-01T17:01:26.158Z,26.98
2022-12-01T17:04:06.082Z,22.08
2022-12-01T17:06:39.193Z,24.67
2022-12-01T17:09:10.920Z,25.48
2022-12-01T17:11:42.546Z,27.05
2022-12-01T17:14:14.164Z,26.90
2022-12-01T17:16:46.236Z,26.73
2022-12-01T17:19:20.776Z,27.00
2022-12-01T17:21:53.307Z,27.25
2022-12-01T17:24:25.993Z,24.98
2022-12-01T17:26:57.621Z,24.90
2022-12-01T17:29:29.251Z,27.83
2022-12-01T17:32:00.926Z,28.17
2022-12-01T17:34:32.514Z,25.80
2022-12-01T17:37:04.561Z,25.55
2022-12-01T17:39:36.225Z,26.17
2022-12-01T17:42:07.848Z,29.10
2022-12-01T17:44:39.379Z,25.30
2022-12-01T17:47:11.604Z,26.13
2022-12-01T17:49:43.663Z,26.38
2022-12-01T17:52:15.522Z,27.92
2022-12-01T17:54:47.297Z,25.95
2022-12-01T17:57:19.138Z,26.23
2022-12-01T17:59:50.837Z,26.25
2022-12-01T18:02:22.554Z,25.60
2022-12-01T18:04:54.841Z,25.85
2022-12-01T18:07:26.702Z,25.95
2022-12-01T18:09:58.318Z,28.05
2022-12-01T18:12:29.916Z,25.77
2022-12-01T18:15:01.590Z,27.75
2022-12-01T18:17:33.208Z,28.35
2022-12-01T18:20:06.509Z,26.52
2022-12-01T18:22:38.109Z,26.38
2022-12-01T18:25:12.203Z,27.83
2022-12-01T18:27:45.078Z,26.35
2022-12-01T18:30:16.885Z,27.45
2022-12-01T18:32:48.447Z,26.90
2022-12-01T18:35:20.106Z,25.13
2022-12-01T18:37:51.716Z,28.10
2022-12-01T18:40:24.125Z,25.35
2022-12-01T18:42:55.938Z,24.52
2022-12-01T18:45:27.507Z,23.98
2022-12-01T18:47:59.099Z,25.60
2022-12-01T18:50:30.734Z,23.15
2022-12-01T18:53:02.406Z,25.08
2022-12-01T18:55:40.490Z,24.63
2022-12-01T18:58:12.167Z,25.10
2022-12-01T19:00:43.859Z,22.73
2022-12-01T19:03:15.952Z,25.10
2022-12-01T19:05:47.587Z,26.48
2022-12-01T19:08:19.276Z,24.80
2022-12-01T19:11:01.707Z,25.27
2022-12-01T19:13:34.233Z,24.58
2022-12-01T19:16:08.431Z,24.48
2022-12-01T19:18:40.534Z,24.17
2022-12-01T19:21:18.601Z,24.35
2022-12-01T19:23:50.578Z,23.60
2022-12-01T19:26:23.193Z,23.85
2022-12-01T19:28:55.914Z,23.75
2022-12-01T19:31:27.709Z,22.63
2022-12-01T19:33:59.343Z,24.50
2022-12-01T19:36:31.028Z,25.35
2022-12-01T19:39:05.974Z,22.55
2022-12-01T19:41:41.303Z,24.05
2022-12-01T19:44:14.676Z,25.35
2022-12-01T19:46:46.256Z,24.05
2022-12-01T19:49:17.931Z,25.48
2022-12-01T19:51:49.621Z,24.95
2022-12-01T19:54:21.406Z,28.55
2022-12-01T19:56:53.081Z,24.95
2022-12-01T19:59:26.740Z,26.05
2022-12-01T20:01:58.566Z,24.75
2022-12-01T20:04:30.292Z,26.02
2022-12-01T20:07:02.125Z,25.98
2022-12-01T20:09:33.741Z,23.60
2022-12-01T20:12:05.472Z,23.77
2022-12-01T20:14:37.091Z,25.85
2022-12-01T20:17:14.327Z,25.00
2022-12-01T20:19:47.379Z,24.80
2022-12-01T20:22:19.113Z,25.42
2022-12-01T20:24:50.985Z,24.75
2022-12-01T20:27:22.709Z,24.10
2022-12-01T20:29:56.120Z,24.67
2022-12-01T20:32:27.820Z,26.65
2022-12-01T20:34:59.608Z,24.27
2022-12-01T20:37:31.277Z,24.73
2022-12-01T20:40:08.056Z,25.70
2022-12-01T20:42:39.744Z,24.63
2022-12-01T20:45:11.360Z,25.52
2022-12-01T20:47:43.042Z,26.58
2022-12-01T20:50:15.867Z,25.10
2022-12-01T20:52:47.468Z,25.08
2022-12-01T20:55:19.176Z,25.23
2022-12-01T20:57:50.999Z,24.38
2022-12-01T21:00:23.538Z,24.83
2022-12-01T21:02:56.958Z,25.50
2022-12-01T21:05:28.639Z,24.63
2022-12-01T21:08:01.722Z,25.33
2022-12-01T21:10:36.685Z,24.13
2022-12-01T21:13:42.508Z,26.30
2022-12-01T21:16:16.867Z,25.00
2022-12-01T21:18:56.121Z,25.52
2022-12-01T21:21:30.855Z,23.98
2022-12-01T21:24:16.668Z,24.67
2022-12-01T21:26:58.297Z,24.90
2022-12-01T21:29:49.831Z,25.52
2022-12-01T21:32:33.463Z,25.33
2022-12-01T21:35:16.518Z,25.90
2022-12-01T21:37:49.315Z,25.92
2022-12-01T21:40:23.834Z,25.88
2022-12-01T21:43:01.125Z,23.40
2022-12-01T21:45:32.735Z,26.50
2022-12-01T21:48:18.360Z,25.70
2022-12-01T21:51:00.712Z,25.98
2022-12-01T21:53:38.394Z,23.25
2022-12-01T21:56:21.282Z,26.38
2022-12-01T21:58:55.356Z,25.25
2022-12-01T22:01:31.871Z,24.48
2022-12-01T22:04:19.246Z,24.98
2022-12-01T22:06:55.965Z,27.57
2022-12-01T22:09:36.611Z,25.05
2022-12-01T22:12:28.891Z,25.65
2022-12-01T22:15:01.732Z,25.48
2022-12-01T22:17:36.836Z,27.15
2022-12-01T22:20:22.179Z,25.85
2022-12-01T22:22:53.761Z,27.42
2022-12-01T22:25:26.759Z,27.77
2022-12-01T22:27:59.958Z,26.55
2022-12-01T22:30:33.656Z,26.00
2022-12-01T22:33:14.770Z,25.10
2022-12-01T22:35:51.765Z,27.48
2022-12-01T22:38:26.377Z,26.10
2022-12-01T22:41:07.338Z,26.70
2022-12-01T22:43:47.456Z,25.38
2022-12-01T22:46:23.754Z,26.75
2022-12-01T22:49:01.497Z,24.13
2022-12-01T22:51:46.382Z,24.67
2022-12-01T22:54:17.943Z,25.08
2022-12-01T22:57:03.872Z,26.30
2022-12-01T22:59:37.966Z,26.63
2022-12-01T23:02:33.487Z,18.65
2022-12-01T23:07:57.685Z,25.13
2022-12-01T23:10:33.613Z,25.02
2022-12-01T23:13:24.641Z,24.90
2022-12-01T23:15:56.388Z,26.08
2022-12-01T23:18:32.136Z,25.30
2022-12-01T23:21:04.081Z,24.05
2022-12-01T23:23:37.421Z,23.48
2022-12-01T23:26:10.467Z,25.92
2022-12-01T23:28:42.144Z,26.02
2022-12-01T23:31:14.066Z,23.67
2022-12-01T23:33:45.777Z,25.60
2022-12-01T23:36:24.323Z,25.67
2022-12-01T23:39:01.370Z,24.95
2022-12-01T23:41:39.067Z,24.10
2022-12-01T23:44:24.067Z,24.60
2022-12-01T23:46:57.775Z,24.02
2022-12-01T23:49:33.120Z,24.33
2022-12-01T23:52:11.018Z,25.02
2022-12-01T23:54:42.725Z,25.08
2022-12-01T23:57:21.752Z,25.27
2022-12-01T23:59:58.306Z,24.58
